Aviation Digital Data Service (ADDS)

Output produced by METARs form (1005 UTC 23 October 2017)
found at http://aviationweather.gov/adds/metars/
 
KRUT 230520Z 2306/2406 13009KT P6SM SKC 
     FM231600 16011G19KT P6SM SCT250 
     FM232100 15013G21KT P6SM SCT045 
     FM240300 14015G27KT P6SM BKN035